sensor_id;sensor_type;location;lat;lon;timestamp;pressure;altitude;pressure_sealevel;temperature;humidity
11487;BME280;10510;47.942;9.442;2023-02-17T00:03:13;95510.25;;;7.07;100.00
11487;BME280;10510;47.942;9.442;2023-02-17T00:05:14;95517.91;;;7.08;100.00
11487;BME280;10510;47.942;9.442;2023-02-17T00:07:14;95509.28;;;7.08;100.00
11487;BME280;10510;47.942;9.442;2023-02-17T00:09:14;95514.38;;;7.09;100.00
11487;BME280;10510;47.942;9.442;2023-02-17T00:11:15;95516.97;;;7.09;100.00
11487;BME280;10510;47.942;9.442;2023-02-17T00:13:15;95513.50;;;7.09;100.00
11487;BME280;10510;47.942;9.442;2023-02-17T00:15:16;95513.38;;;7.10;100.00
11487;BME280;10510;47.942;9.442;2023-02-17T00:17:16;95509.16;;;7.09;100.00
11487;BME280;10510;47.942;9.442;2023-02-17T00:19:16;95509.16;;;7.09;100.00
11487;BME280;10510;47.942;9.442;2023-02-17T00:21:25;95514.38;;;7.09;100.00
11487;BME280;10510;47.942;9.442;2023-02-17T00:23:25;95508.31;;;7.09;100.00
11487;BME280;10510;47.942;9.442;2023-02-17T00:25:25;95509.81;;;7.11;100.00
11487;BME280;10510;47.942;9.442;2023-02-17T00:27:26;95502.03;;;7.11;100.00
11487;BME280;10510;47.942;9.442;2023-02-17T00:29:26;95507.22;;;7.11;100.00
11487;BME280;10510;47.942;9.442;2023-02-17T00:31:26;95506.28;;;7.12;100.00
11487;BME280;10510;47.942;9.442;2023-02-17T00:33:27;95512.41;;;7.11;100.00
11487;BME280;10510;47.942;9.442;2023-02-17T00:35:27;95513.22;;;7.12;100.00
11487;BME280;10510;47.942;9.442;2023-02-17T00:37:27;95504.50;;;7.13;100.00
11487;BME280;10510;47.942;9.442;2023-02-17T00:39:27;95506.13;;;7.14;100.00
11487;BME280;10510;47.942;9.442;2023-02-17T00:41:28;95511.19;;;7.15;100.00
11487;BME280;10510;47.942;9.442;2023-02-17T00:43:28;95513.09;;;7.13;100.00
11487;BME280;10510;47.942;9.442;2023-02-17T00:45:28;95518.19;;;7.15;100.00
11487;BME280;10510;47.942;9.442;2023-02-17T00:47:29;95526.78;;;7.15;100.00
11487;BME280;10510;47.942;9.442;2023-02-17T00:49:29;95522.53;;;7.14;100.00
11487;BME280;10510;47.942;9.442;2023-02-17T00:51:29;95524.31;;;7.14;100.00
11487;BME280;10510;47.942;9.442;2023-02-17T00:53:30;95525.13;;;7.14;100.00
11487;BME280;10510;47.942;9.442;2023-02-17T00:55:30;95525.13;;;7.14;100.00
11487;BME280;10510;47.942;9.442;2023-02-17T00:57:30;95523.50;;;7.13;100.00
11487;BME280;10510;47.942;9.442;2023-02-17T00:59:31;95527.06;;;7.12;100.00
11487;BME280;10510;47.942;9.442;2023-02-17T01:01:32;95515.84;;;7.12;100.00
11487;BME280;10510;47.942;9.442;2023-02-17T01:03:32;95519.41;;;7.11;100.00
11487;BME280;10510;47.942;9.442;2023-02-17T01:05:33;95518.59;;;7.10;100.00
11487;BME280;10510;47.942;9.442;2023-02-17T01:07:33;95514.50;;;7.08;100.00
11487;BME280;10510;47.942;9.442;2023-02-17T01:09:36;95507.66;;;7.07;100.00
11487;BME280;10510;47.942;9.442;2023-02-17T01:11:36;95516.28;;;7.07;100.00
11487;BME280;10510;47.942;9.442;2023-02-17T01:13:36;95510.38;;;7.05;100.00
11487;BME280;10510;47.942;9.442;2023-02-17T01:15:41;95512.97;;;7.05;100.00
11487;BME280;10510;47.942;9.442;2023-02-17T01:17:42;95516.41;;;7.05;100.00
11487;BME280;10510;47.942;9.442;2023-02-17T01:19:42;95509.44;;;7.06;100.00
11487;BME280;10510;47.942;9.442;2023-02-17T01:21:43;95512.03;;;7.06;100.00
11487;BME280;10510;47.942;9.442;2023-02-17T01:23:44;95510.38;;;7.05;100.00
11487;BME280;10510;47.942;9.442;2023-02-17T01:25:46;95513.13;;;7.03;100.00
11487;BME280;10510;47.942;9.442;2023-02-17T01:27:46;95503.03;;;7.00;100.00
11487;BME280;10510;47.942;9.442;2023-02-17T01:29:47;95506.72;;;6.98;100.00
11487;BME280;10510;47.942;9.442;2023-02-17T01:31:47;95496.44;;;6.96;100.00
11487;BME280;10510;47.942;9.442;2023-02-17T01:33:48;95500.00;;;6.95;100.00
11487;BME280;10510;47.942;9.442;2023-02-17T01:35:48;95497.41;;;6.95;100.00
11487;BME280;10510;47.942;9.442;2023-02-17T01:37:49;95493.31;;;6.93;100.00
11487;BME280;10510;47.942;9.442;2023-02-17T01:39:49;95493.31;;;6.93;100.00
11487;BME280;10510;47.942;9.442;2023-02-17T01:41:49;95496.06;;;6.91;100.00
11487;BME280;10510;47.942;9.442;2023-02-17T01:44:12;95487.59;;;6.89;100.00
11487;BME280;10510;47.942;9.442;2023-02-17T01:46:13;95491.00;;;6.90;100.00
11487;BME280;10510;47.942;9.442;2023-02-17T01:48:16;95485.81;;;6.90;100.00
11487;BME280;10510;47.942;9.442;2023-02-17T01:50:20;95500.69;;;6.88;100.00
11487;BME280;10510;47.942;9.442;2023-02-17T01:52:23;95486.78;;;6.89;100.00
11487;BME280;10510;47.942;9.442;2023-02-17T01:54:33;95480.88;;;6.87;100.00
11487;BME280;10510;47.942;9.442;2023-02-17T01:56:37;95481.69;;;6.87;100.00
11487;BME280;10510;47.942;9.442;2023-02-17T01:58:41;95486.78;;;6.89;100.00
11487;BME280;10510;47.942;9.442;2023-02-17T02:00:43;95480.59;;;6.90;100.00
11487;BME280;10510;47.942;9.442;2023-02-17T02:02:46;95478.81;;;6.90;100.00
11487;BME280;10510;47.942;9.442;2023-02-17T02:04:50;95479.63;;;6.91;100.00
11487;BME280;10510;47.942;9.442;2023-02-17T02:06:51;95475.28;;;6.91;100.00
11487;BME280;10510;47.942;9.442;2023-02-17T02:09:02;95475.13;;;6.93;100.00
11487;BME280;10510;47.942;9.442;2023-02-17T02:11:03;95476.75;;;6.94;100.00
11487;BME280;10510;47.942;9.442;2023-02-17T02:13:04;95483.59;;;6.95;100.00
11487;BME280;10510;47.942;9.442;2023-02-17T02:15:11;95476.63;;;6.95;100.00
11487;BME280;10510;47.942;9.442;2023-02-17T02:17:25;95467.03;;;6.96;100.00
11487;BME280;10510;47.942;9.442;2023-02-17T02:20:06;95468.53;;;6.98;100.00
11487;BME280;10510;47.942;9.442;2023-02-17T02:26:55;95461.84;;;6.96;100.00
11487;BME280;10510;47.942;9.442;2023-02-17T02:29:40;95460.88;;;6.97;100.00
11487;BME280;10510;47.942;9.442;2023-02-17T02:32:19;95463.63;;;6.95;100.00
11487;BME280;10510;47.942;9.442;2023-02-17T02:34:25;95459.25;;;6.96;100.00
11487;BME280;10510;47.942;9.442;2023-02-17T02:36:41;95456.94;;;6.93;100.00
11487;BME280;10510;47.942;9.442;2023-02-17T02:38:53;95450.22;;;6.90;100.00
11487;BME280;10510;47.942;9.442;2023-02-17T02:41:03;95455.59;;;6.89;100.00
11487;BME280;10510;47.942;9.442;2023-02-17T02:43:06;95452.16;;;6.88;100.00
11487;BME280;10510;47.942;9.442;2023-02-17T02:45:08;95454.63;;;6.90;100.00
11487;BME280;10510;47.942;9.442;2023-02-17T02:49:35;95453.81;;;6.89;100.00
11487;BME280;10510;47.942;9.442;2023-02-17T02:51:58;95450.50;;;6.87;100.00
11487;BME280;10510;47.942;9.442;2023-02-17T02:54:17;95451.31;;;6.88;100.00
11487;BME280;10510;47.942;9.442;2023-02-17T03:01:16;95458.03;;;6.90;100.00
11487;BME280;10510;47.942;9.442;2023-02-17T03:03:40;95460.50;;;6.92;100.00
11487;BME280;10510;47.942;9.442;2023-02-17T03:08:04;95451.44;;;6.96;100.00
11487;BME280;10510;47.942;9.442;2023-02-17T03:10:08;95450.63;;;6.95;100.00
11487;BME280;10510;47.942;9.442;2023-02-17T03:12:08;95447.22;;;6.95;100.00
11487;BME280;10510;47.942;9.442;2023-02-17T03:14:11;95449.66;;;6.96;100.00
11487;BME280;10510;47.942;9.442;2023-02-17T03:16:11;95452.13;;;6.98;100.00
11487;BME280;10510;47.942;9.442;2023-02-17T03:18:14;95451.84;;;7.01;100.00
11487;BME280;10510;47.942;9.442;2023-02-17T03:20:14;95443.09;;;7.02;100.00
11487;BME280;10510;47.942;9.442;2023-02-17T03:22:21;95443.91;;;7.02;100.00
11487;BME280;10510;47.942;9.442;2023-02-17T03:24:22;95441.47;;;7.01;100.00
11487;BME280;10510;47.942;9.442;2023-02-17T03:26:23;95441.47;;;7.01;100.00
11487;BME280;10510;47.942;9.442;2023-02-17T03:28:23;95449.25;;;7.01;100.00
11487;BME280;10510;47.942;9.442;2023-02-17T03:30:24;95445.84;;;7.00;100.00
11487;BME280;10510;47.942;9.442;2023-02-17T03:32:24;95452.78;;;7.00;100.00
11487;BME280;10510;47.942;9.442;2023-02-17T03:34:24;95445.16;;;6.98;100.00
11487;BME280;10510;47.942;9.442;2023-02-17T03:36:25;95446.94;;;6.98;100.00
11487;BME280;10510;47.942;9.442;2023-02-17T03:38:25;95439.44;;;6.95;100.00
11487;BME280;10510;47.942;9.442;2023-02-17T03:40:25;95438.63;;;6.94;100.00
11487;BME280;10510;47.942;9.442;2023-02-17T03:42:26;95440.38;;;6.94;100.00
11487;BME280;10510;47.942;9.442;2023-02-17T03:44:26;95431.91;;;6.92;100.00
11487;BME280;10510;47.942;9.442;2023-02-17T03:46:26;95435.44;;;6.91;100.00
11487;BME280;10510;47.942;9.442;2023-02-17T03:48:27;95435.44;;;6.91;100.00
11487;BME280;10510;47.942;9.442;2023-02-17T03:50:27;95440.66;;;6.91;100.00
11487;BME280;10510;47.942;9.442;2023-02-17T03:52:27;95438.91;;;6.91;100.00
11487;BME280;10510;47.942;9.442;2023-02-17T03:54:27;95440.00;;;6.89;100.00
11487;BME280;10510;47.942;9.442;2023-02-17T03:56:28;95444.34;;;6.88;100.00
11487;BME280;10510;47.942;9.442;2023-02-17T03:58:28;95441.91;;;6.87;100.00
11487;BME280;10510;47.942;9.442;2023-02-17T04:00:28;95443.69;;;6.86;100.00
11487;BME280;10510;47.942;9.442;2023-02-17T04:02:29;95443.69;;;6.86;100.00
11487;BME280;10510;47.942;9.442;2023-02-17T04:04:29;95441.09;;;6.86;100.00
11487;BME280;10510;47.942;9.442;2023-02-17T04:06:29;95451.63;;;6.85;100.00
11487;BME280;10510;47.942;9.442;2023-02-17T04:08:30;95443.97;;;6.83;100.00
11487;BME280;10510;47.942;9.442;2023-02-17T04:10:30;95453.56;;;6.82;100.00
11487;BME280;10510;47.942;9.442;2023-02-17T04:12:31;95445.19;;;6.79;100.00
11487;BME280;10510;47.942;9.442;2023-02-17T04:14:31;95446.97;;;6.78;100.00
11487;BME280;10510;47.942;9.442;2023-02-17T04:16:31;95450.53;;;6.77;100.00
11487;BME280;10510;47.942;9.442;2023-02-17T04:18:32;95451.34;;;6.78;100.00
11487;BME280;10510;47.942;9.442;2023-02-17T04:20:32;95445.34;;;6.77;100.00
11487;BME280;10510;47.942;9.442;2023-02-17T04:22:33;95444.38;;;6.78;100.00
11487;BME280;10510;47.942;9.442;2023-02-17T04:24:35;95442.31;;;6.82;100.00
11487;BME280;10510;47.942;9.442;2023-02-17T04:26:36;95440.28;;;6.86;100.00
11487;BME280;10510;47.942;9.442;2023-02-17T04:28:37;95442.72;;;6.87;100.00
11487;BME280;10510;47.942;9.442;2023-02-17T04:30:38;95439.03;;;6.90;100.00
11487;BME280;10510;47.942;9.442;2023-02-17T04:32:38;95442.44;;;6.90;100.00
11487;BME280;10510;47.942;9.442;2023-02-17T04:34:39;95434.63;;;6.90;100.00
11487;BME280;10510;47.942;9.442;2023-02-17T04:36:39;95428.63;;;6.90;100.00
11487;BME280;10510;47.942;9.442;2023-02-17T04:38:39;95422.75;;;6.88;100.00
11487;BME280;10510;47.942;9.442;2023-02-17T04:40:40;95430.25;;;6.91;100.00
11487;BME280;10510;47.942;9.442;2023-02-17T04:42:40;95433.69;;;6.91;100.00
11487;BME280;10510;47.942;9.442;2023-02-17T04:44:41;95433.69;;;6.91;100.00
11487;BME280;10510;47.942;9.442;2023-02-17T04:46:41;95430.41;;;6.89;100.00
11487;BME280;10510;47.942;9.442;2023-02-17T04:48:41;95438.22;;;6.89;100.00
11487;BME280;10510;47.942;9.442;2023-02-17T04:50:41;95427.00;;;6.89;100.00
11487;BME280;10510;47.942;9.442;2023-02-17T04:52:42;95430.53;;;6.88;100.00
11487;BME280;10510;47.942;9.442;2023-02-17T04:54:42;95430.25;;;6.91;100.00
11487;BME280;10510;47.942;9.442;2023-02-17T04:56:42;95423.31;;;6.91;100.00
11487;BME280;10510;47.942;9.442;2023-02-17T04:58:42;95427.53;;;6.92;100.00
11487;BME280;10510;47.942;9.442;2023-02-17T05:00:43;95423.31;;;6.91;100.00
11487;BME280;10510;47.942;9.442;2023-02-17T05:02:43;95424.13;;;6.92;100.00
11487;BME280;10510;47.942;9.442;2023-02-17T05:04:43;95425.75;;;6.93;100.00
11487;BME280;10510;47.942;9.442;2023-02-17T05:06:44;95432.28;;;6.97;100.00
11487;BME280;10510;47.942;9.442;2023-02-17T05:08:44;95434.06;;;6.96;100.00
11487;BME280;10510;47.942;9.442;2023-02-17T05:10:50;95435.56;;;6.99;100.00
11487;BME280;10510;47.942;9.442;2023-02-17T05:12:51;95427.50;;;7.02;100.00
11487;BME280;10510;47.942;9.442;2023-02-17T05:14:51;95427.38;;;7.03;100.00
11487;BME280;10510;47.942;9.442;2023-02-17T05:16:51;95423.66;;;7.06;100.00
11487;BME280;10510;47.942;9.442;2023-02-17T05:18:52;95425.00;;;7.10;100.00
11487;BME280;10510;47.942;9.442;2023-02-17T05:20:52;95438.00;;;7.10;100.00
11487;BME280;10510;47.942;9.442;2023-02-17T05:22:52;95429.22;;;7.11;100.00
11487;BME280;10510;47.942;9.442;2023-02-17T05:24:53;95419.00;;;7.10;100.00
11487;BME280;10510;47.942;9.442;2023-02-17T05:26:53;95422.41;;;7.10;100.00
11487;BME280;10510;47.942;9.442;2023-02-17T05:28:53;95421.59;;;7.10;100.00
11487;BME280;10510;47.942;9.442;2023-02-17T05:30:54;95424.31;;;7.08;100.00
11487;BME280;10510;47.942;9.442;2023-02-17T05:32:54;95422.69;;;7.07;100.00
11487;BME280;10510;47.942;9.442;2023-02-17T05:34:55;95429.81;;;7.05;100.00
11487;BME280;10510;47.942;9.442;2023-02-17T05:36:55;95428.31;;;7.02;100.00
11487;BME280;10510;47.942;9.442;2023-02-17T05:38:56;95442.28;;;7.01;100.00
11487;BME280;10510;47.942;9.442;2023-02-17T05:40:56;95432.97;;;6.99;100.00
11487;BME280;10510;47.942;9.442;2023-02-17T05:42:56;95431.34;;;6.98;100.00
11487;BME280;10510;47.942;9.442;2023-02-17T05:44:56;95427.25;;;6.95;100.00
11487;BME280;10510;47.942;9.442;2023-02-17T05:46:57;95424.66;;;6.95;100.00
11487;BME280;10510;47.942;9.442;2023-02-17T05:48:57;95430.66;;;6.96;100.00
11487;BME280;10510;47.942;9.442;2023-02-17T05:50:57;95424.50;;;6.97;100.00
11487;BME280;10510;47.942;9.442;2023-02-17T05:52:58;95431.47;;;6.96;100.00
11487;BME280;10510;47.942;9.442;2023-02-17T05:54:58;95432.28;;;6.97;100.00
11487;BME280;10510;47.942;9.442;2023-02-17T05:56:58;95428.75;;;6.98;100.00
11487;BME280;10510;47.942;9.442;2023-02-17T05:58:58;95419.16;;;6.98;100.00
11487;BME280;10510;47.942;9.442;2023-02-17T06:00:59;95426.97;;;6.98;100.00
11487;BME280;10510;47.942;9.442;2023-02-17T06:03:00;95432.00;;;7.00;100.00
11487;BME280;10510;47.942;9.442;2023-02-17T06:05:00;95429.56;;;6.98;100.00
11487;BME280;10510;47.942;9.442;2023-02-17T06:07:00;95426.16;;;6.98;100.00
11487;BME280;10510;47.942;9.442;2023-02-17T06:09:01;95429.69;;;6.97;100.00
11487;BME280;10510;47.942;9.442;2023-02-17T06:11:02;95441.06;;;6.96;100.00
11487;BME280;10510;47.942;9.442;2023-02-17T06:13:02;95447.22;;;6.95;100.00
11487;BME280;10510;47.942;9.442;2023-02-17T06:15:02;95446.53;;;6.93;100.00
11487;BME280;10510;47.942;9.442;2023-02-17T06:17:03;95435.44;;;6.91;100.00
11487;BME280;10510;47.942;9.442;2023-02-17T06:19:03;95436.44;;;6.90;100.00
11487;BME280;10510;47.942;9.442;2023-02-17T06:21:04;95436.56;;;6.88;100.00
11487;BME280;10510;47.942;9.442;2023-02-17T06:23:04;95439.31;;;6.87;100.00
11487;BME280;10510;47.942;9.442;2023-02-17T06:25:05;95436.84;;;6.85;100.00
11487;BME280;10510;47.942;9.442;2023-02-17T06:27:05;95438.63;;;6.85;100.00
11487;BME280;10510;47.942;9.442;2023-02-17T06:29:06;95437.69;;;6.86;100.00
11487;BME280;10510;47.942;9.442;2023-02-17T06:31:06;95437.69;;;6.86;100.00
11487;BME280;10510;47.942;9.442;2023-02-17T06:33:07;95437.53;;;6.87;100.00
11487;BME280;10510;47.942;9.442;2023-02-17T06:35:08;95444.63;;;6.95;100.00
11487;BME280;10510;47.942;9.442;2023-02-17T06:37:08;95438.97;;;6.99;100.00
11487;BME280;10510;47.942;9.442;2023-02-17T06:39:08;95440.88;;;7.07;100.00
11487;BME280;10510;47.942;9.442;2023-02-17T06:41:09;95439.78;;;7.10;100.00
11487;BME280;10510;47.942;9.442;2023-02-17T06:43:09;95441.28;;;7.12;100.00
11487;BME280;10510;47.942;9.442;2023-02-17T06:45:10;95444.53;;;7.14;100.00
11487;BME280;10510;47.942;9.442;2023-02-17T06:47:10;95453.56;;;7.20;100.00
11487;BME280;10510;47.942;9.442;2023-02-17T06:49:10;95446.84;;;7.27;100.00
11487;BME280;10510;47.942;9.442;2023-02-17T06:51:11;95455.16;;;7.31;100.00
11487;BME280;10510;47.942;9.442;2023-02-17T06:53:11;95454.06;;;7.33;100.00
11487;BME280;10510;47.942;9.442;2023-02-17T06:55:11;95464.19;;;7.36;100.00
11487;BME280;10510;47.942;9.442;2023-02-17T06:57:12;95469.38;;;7.36;100.00
11487;BME280;10510;47.942;9.442;2023-02-17T06:59:12;95460.47;;;7.39;100.00
11487;BME280;10510;47.942;9.442;2023-02-17T07:01:15;95475.63;;;7.43;100.00
11487;BME280;10510;47.942;9.442;2023-02-17T07:03:16;95470.44;;;7.43;100.00
11487;BME280;10510;47.942;9.442;2023-02-17T07:05:16;95468.50;;;7.45;100.00
11487;BME280;10510;47.942;9.442;2023-02-17T07:07:16;95475.06;;;7.49;100.00
11487;BME280;10510;47.942;9.442;2023-02-17T07:09:17;95479.03;;;7.54;100.00
11487;BME280;10510;47.942;9.442;2023-02-17T07:11:18;95483.94;;;7.57;100.00
11487;BME280;10510;47.942;9.442;2023-02-17T07:13:18;95478.44;;;7.60;100.00
11487;BME280;10510;47.942;9.442;2023-02-17T07:15:18;95478.16;;;7.63;100.00
11487;BME280;10510;47.942;9.442;2023-02-17T07:17:19;95478.69;;;7.66;100.00
11487;BME280;10510;47.942;9.442;2023-02-17T07:19:19;95493.03;;;7.70;100.00
11487;BME280;10510;47.942;9.442;2023-02-17T07:21:19;95475.50;;;7.72;100.00
11487;BME280;10510;47.942;9.442;2023-02-17T07:23:20;95488.22;;;7.76;100.00
11487;BME280;10510;47.942;9.442;2023-02-17T07:25:20;95481.91;;;7.78;100.00
11487;BME280;10510;47.942;9.442;2023-02-17T07:27:20;95484.38;;;7.80;100.00
11487;BME280;10510;47.942;9.442;2023-02-17T07:29:21;95487.50;;;7.83;100.00
11487;BME280;10510;47.942;9.442;2023-02-17T07:31:21;95482.69;;;7.88;100.00
11487;BME280;10510;47.942;9.442;2023-02-17T07:33:22;95485.34;;;7.96;100.00
11487;BME280;10510;47.942;9.442;2023-02-17T07:35:22;95489.31;;;8.01;100.00
11487;BME280;10510;47.942;9.442;2023-02-17T07:37:22;95488.88;;;8.05;100.00
11487;BME280;10510;47.942;9.442;2023-02-17T07:39:22;95488.56;;;8.08;100.00
11487;BME280;10510;47.942;9.442;2023-02-17T07:41:24;95482.13;;;8.12;100.00
11487;BME280;10510;47.942;9.442;2023-02-17T07:43:27;95484.44;;;8.15;100.00
11487;BME280;10510;47.942;9.442;2023-02-17T07:45:28;95480.72;;;8.18;100.00
11487;BME280;10510;47.942;9.442;2023-02-17T07:47:28;95483.31;;;8.18;100.00
11487;BME280;10510;47.942;9.442;2023-02-17T07:49:29;95492.31;;;8.24;100.00
11487;BME280;10510;47.942;9.442;2023-02-17T07:51:29;95495.16;;;8.30;100.00
11487;BME280;10510;47.942;9.442;2023-02-17T07:53:29;95487.28;;;8.40;100.00
11487;BME280;10510;47.942;9.442;2023-02-17T07:55:29;95490.66;;;8.50;100.00
11487;BME280;10510;47.942;9.442;2023-02-17T07:57:30;95487.94;;;8.60;100.00
11487;BME280;10510;47.942;9.442;2023-02-17T07:59:30;95494.88;;;8.69;100.00
11487;BME280;10510;47.942;9.442;2023-02-17T08:01:30;95495.59;;;8.79;100.00
11487;BME280;10510;47.942;9.442;2023-02-17T08:03:31;95504.16;;;8.90;100.00
11487;BME280;10510;47.942;9.442;2023-02-17T08:05:31;95503.09;;;9.00;100.00
11487;BME280;10510;47.942;9.442;2023-02-17T08:07:31;95504.91;;;9.08;100.00
11487;BME280;10510;47.942;9.442;2023-02-17T08:09:32;95510.81;;;9.10;100.00
11487;BME280;10510;47.942;9.442;2023-02-17T08:11:51;95497.28;;;9.15;100.00
11487;BME280;10510;47.942;9.442;2023-02-17T08:14:09;95511.31;;;9.14;100.00
11487;BME280;10510;47.942;9.442;2023-02-17T08:16:09;95512.00;;;9.16;100.00
11487;BME280;10510;47.942;9.442;2023-02-17T08:18:10;95511.19;;;9.15;100.00
11487;BME280;10510;47.942;9.442;2023-02-17T08:20:10;95505.41;;;9.12;100.00
11487;BME280;10510;47.942;9.442;2023-02-17T08:22:12;95508.34;;;9.08;100.00
11487;BME280;10510;47.942;9.442;2023-02-17T08:24:12;95513.56;;;9.08;100.00
11487;BME280;10510;47.942;9.442;2023-02-17T08:26:14;95508.00;;;9.03;100.00
11487;BME280;10510;47.942;9.442;2023-02-17T08:28:14;95509.25;;;8.99;100.00
11487;BME280;10510;47.942;9.442;2023-02-17T08:30:16;95517.69;;;8.93;100.00
11487;BME280;10510;47.942;9.442;2023-02-17T08:32:16;95518.16;;;8.89;100.00
11487;BME280;10510;47.942;9.442;2023-02-17T08:34:17;95522.84;;;8.85;100.00
11487;BME280;10510;47.942;9.442;2023-02-17T08:36:18;95525.75;;;8.82;100.00
11487;BME280;10510;47.942;9.442;2023-02-17T08:38:21;95531.94;;;8.81;100.00
11487;BME280;10510;47.942;9.442;2023-02-17T08:40:21;95528.88;;;8.85;100.00
11487;BME280;10510;47.942;9.442;2023-02-17T08:42:22;95522.41;;;8.90;100.00
11487;BME280;10510;47.942;9.442;2023-02-17T08:44:22;95518.66;;;8.92;100.00
11487;BME280;10510;47.942;9.442;2023-02-17T08:46:23;95522.47;;;8.98;100.00
11487;BME280;10510;47.942;9.442;2023-02-17T08:48:24;95528.56;;;9.06;100.00
11487;BME280;10510;47.942;9.442;2023-02-17T08:50:24;95518.53;;;9.20;100.00
11487;BME280;10510;47.942;9.442;2023-02-17T08:52:24;95522.50;;;9.32;100.00
11487;BME280;10510;47.942;9.442;2023-02-17T08:54:25;95528.47;;;9.42;100.00
11487;BME280;10510;47.942;9.442;2023-02-17T08:56:26;95528.53;;;9.59;100.00
11487;BME280;10510;47.942;9.442;2023-02-17T08:58:27;95528.88;;;9.64;100.00
11487;BME280;10510;47.942;9.442;2023-02-17T09:00:27;95527.94;;;9.65;100.00
11487;BME280;10510;47.942;9.442;2023-02-17T09:02:28;95530.19;;;9.60;100.00
11487;BME280;10510;47.942;9.442;2023-02-17T09:04:28;95520.19;;;9.55;100.00
11487;BME280;10510;47.942;9.442;2023-02-17T09:06:37;95541.25;;;9.53;100.00
11487;BME280;10510;47.942;9.442;2023-02-17T09:08:39;95526.53;;;9.52;100.00
11487;BME280;10510;47.942;9.442;2023-02-17T09:10:40;95528.19;;;9.53;100.00
11487;BME280;10510;47.942;9.442;2023-02-17T09:12:40;95537.03;;;9.61;100.00
11487;BME280;10510;47.942;9.442;2023-02-17T09:14:40;95531.53;;;9.72;100.00
11487;BME280;10510;47.942;9.442;2023-02-17T09:16:41;95540.09;;;9.90;100.00
11487;BME280;10510;47.942;9.442;2023-02-17T09:18:41;95537.91;;;10.12;100.00
11487;BME280;10510;47.942;9.442;2023-02-17T09:20:41;95542.88;;;10.31;100.00
11487;BME280;10510;47.942;9.442;2023-02-17T09:22:41;95553.38;;;10.56;100.00
11487;BME280;10510;47.942;9.442;2023-02-17T09:24:42;95546.53;;;10.79;100.00
11487;BME280;10510;47.942;9.442;2023-02-17T09:26:43;95543.94;;;10.96;100.00
11487;BME280;10510;47.942;9.442;2023-02-17T09:28:44;95549.16;;;11.20;100.00
11487;BME280;10510;47.942;9.442;2023-02-17T09:30:45;95546.19;;;11.48;100.00
11487;BME280;10510;47.942;9.442;2023-02-17T09:32:45;95547.91;;;11.80;100.00
11487;BME280;10510;47.942;9.442;2023-02-17T09:34:46;95549.53;;;11.97;100.00
11487;BME280;10510;47.942;9.442;2023-02-17T09:36:52;95551.03;;;11.75;100.00
11487;BME280;10510;47.942;9.442;2023-02-17T09:38:53;95556.97;;;11.53;100.00
11487;BME280;10510;47.942;9.442;2023-02-17T09:40:53;95552.25;;;11.32;100.00
11487;BME280;10510;47.942;9.442;2023-02-17T09:42:54;95539.03;;;11.25;100.00
11487;BME280;10510;47.942;9.442;2023-02-17T09:44:59;95555.22;;;11.12;100.00
11487;BME280;10510;47.942;9.442;2023-02-17T09:47:14;95550.81;;;11.13;100.00
11487;BME280;10510;47.942;9.442;2023-02-17T09:49:23;95559.00;;;11.18;100.00
11487;BME280;10510;47.942;9.442;2023-02-17T09:51:36;95558.81;;;11.44;100.00
11487;BME280;10510;47.942;9.442;2023-02-17T09:53:42;95558.28;;;11.57;100.00
11487;BME280;10510;47.942;9.442;2023-02-17T09:55:51;95558.47;;;11.31;100.00
11487;BME280;10510;47.942;9.442;2023-02-17T09:57:57;95558.81;;;11.20;100.00
11487;BME280;10510;47.942;9.442;2023-02-17T10:00:12;95561.63;;;11.18;100.00
11487;BME280;10510;47.942;9.442;2023-02-17T10:02:33;95560.13;;;11.24;100.00
11487;BME280;10510;47.942;9.442;2023-02-17T10:04:41;95558.19;;;11.09;100.00
11487;BME280;10510;47.942;9.442;2023-02-17T10:06:46;95550.16;;;11.03;100.00
11487;BME280;10510;47.942;9.442;2023-02-17T10:08:51;95543.81;;;10.97;100.00
11487;BME280;10510;47.942;9.442;2023-02-17T10:10:58;95547.53;;;11.03;100.00
11487;BME280;10510;47.942;9.442;2023-02-17T10:13:01;95554.91;;;11.16;100.00
11487;BME280;10510;47.942;9.442;2023-02-17T10:15:16;95550.63;;;11.47;100.00
11487;BME280;10510;47.942;9.442;2023-02-17T10:17:31;95549.72;;;11.88;100.00
11487;BME280;10510;47.942;9.442;2023-02-17T10:19:53;95563.41;;;12.37;100.00
11487;BME280;10510;47.942;9.442;2023-02-17T10:22:01;95560.00;;;12.37;100.00
11487;BME280;10510;47.942;9.442;2023-02-17T10:24:04;95556.16;;;12.16;100.00
11487;BME280;10510;47.942;9.442;2023-02-17T10:31:01;95566.75;;;11.67;100.00
11487;BME280;10510;47.942;9.442;2023-02-17T10:33:24;95552.50;;;11.78;100.00
11487;BME280;10510;47.942;9.442;2023-02-17T10:35:55;95544.63;;;11.94;100.00
11487;BME280;10510;47.942;9.442;2023-02-17T10:40:30;95545.78;;;11.83;100.00
11487;BME280;10510;47.942;9.442;2023-02-17T10:42:35;95552.63;;;11.85;100.00
11487;BME280;10510;47.942;9.442;2023-02-17T10:44:37;95558.88;;;11.75;100.00
11487;BME280;10510;47.942;9.442;2023-02-17T10:46:39;95561.22;;;11.62;100.00
11487;BME280;10510;47.942;9.442;2023-02-17T10:48:47;95561.09;;;11.47;100.00
11487;BME280;10510;47.942;9.442;2023-02-17T10:50:49;95565.00;;;11.35;100.00
11487;BME280;10510;47.942;9.442;2023-02-17T10:52:50;95566.19;;;11.32;100.00
11487;BME280;10510;47.942;9.442;2023-02-17T10:55:06;95555.72;;;11.32;100.00
11487;BME280;10510;47.942;9.442;2023-02-17T10:57:11;95544.91;;;11.27;100.00
11487;BME280;10510;47.942;9.442;2023-02-17T10:59:26;95544.59;;;11.22;100.00
11487;BME280;10510;47.942;9.442;2023-02-17T11:01:27;95549.81;;;11.22;100.00
11487;BME280;10510;47.942;9.442;2023-02-17T11:03:29;95548.69;;;11.08;100.00
11487;BME280;10510;47.942;9.442;2023-02-17T11:05:33;95540.34;;;10.97;100.00
11487;BME280;10510;47.942;9.442;2023-02-17T11:07:36;95541.81;;;10.99;100.00
11487;BME280;10510;47.942;9.442;2023-02-17T11:09:49;95535.44;;;10.94;100.00
11487;BME280;10510;47.942;9.442;2023-02-17T11:12:15;95535.47;;;10.85;100.00